sensor_id;sensor_type;location;lat;lon;timestamp;P1;durP1;ratioP1;P2;durP2;ratioP2
2610;SDS011;5612;51.134;17.058;2024-01-15T00:01:35;17.80;;;13.80;;
2610;SDS011;5612;51.134;17.058;2024-01-15T00:04:05;17.90;;;13.50;;
2610;SDS011;5612;51.134;17.058;2024-01-15T00:06:34;19.50;;;14.20;;
2610;SDS011;5612;51.134;17.058;2024-01-15T00:09:04;19.57;;;13.70;;
2610;SDS011;5612;51.134;17.058;2024-01-15T00:11:33;21.43;;;14.03;;
2610;SDS011;5612;51.134;17.058;2024-01-15T00:14:02;19.60;;;12.20;;
2610;SDS011;5612;51.134;17.058;2024-01-15T00:16:31;14.23;;;12.57;;
2610;SDS011;5612;51.134;17.058;2024-01-15T00:19:00;15.80;;;12.97;;
2610;SDS011;5612;51.134;17.058;2024-01-15T00:21:30;16.87;;;11.57;;
2610;SDS011;5612;51.134;17.058;2024-01-15T00:23:59;14.00;;;11.10;;
2610;SDS011;5612;51.134;17.058;2024-01-15T00:26:28;13.40;;;11.03;;
2610;SDS011;5612;51.134;17.058;2024-01-15T00:28:58;14.30;;;11.80;;
2610;SDS011;5612;51.134;17.058;2024-01-15T00:31:26;13.47;;;11.20;;
2610;SDS011;5612;51.134;17.058;2024-01-15T00:33:56;13.70;;;10.70;;
2610;SDS011;5612;51.134;17.058;2024-01-15T00:36:26;10.07;;;8.97;;
2610;SDS011;5612;51.134;17.058;2024-01-15T00:38:57;12.03;;;10.73;;
2610;SDS011;5612;51.134;17.058;2024-01-15T00:41:25;12.30;;;8.80;;
2610;SDS011;5612;51.134;17.058;2024-01-15T00:43:55;12.00;;;10.80;;
2610;SDS011;5612;51.134;17.058;2024-01-15T00:46:24;12.00;;;9.57;;
2610;SDS011;5612;51.134;17.058;2024-01-15T00:48:53;13.33;;;10.30;;
2610;SDS011;5612;51.134;17.058;2024-01-15T00:51:22;15.27;;;10.13;;
2610;SDS011;5612;51.134;17.058;2024-01-15T00:53:51;12.73;;;9.97;;
2610;SDS011;5612;51.134;17.058;2024-01-15T00:56:21;9.57;;;8.67;;
2610;SDS011;5612;51.134;17.058;2024-01-15T00:58:50;14.40;;;10.13;;
2610;SDS011;5612;51.134;17.058;2024-01-15T01:01:19;13.83;;;10.20;;
2610;SDS011;5612;51.134;17.058;2024-01-15T01:03:48;11.23;;;10.07;;
2610;SDS011;5612;51.134;17.058;2024-01-15T01:06:17;11.30;;;9.83;;
2610;SDS011;5612;51.134;17.058;2024-01-15T01:08:46;10.17;;;8.30;;
2610;SDS011;5612;51.134;17.058;2024-01-15T01:11:15;11.03;;;8.33;;
2610;SDS011;5612;51.134;17.058;2024-01-15T01:13:46;13.73;;;9.47;;
2610;SDS011;5612;51.134;17.058;2024-01-15T01:16:14;13.37;;;9.93;;
2610;SDS011;5612;51.134;17.058;2024-01-15T01:18:43;14.20;;;9.70;;
2610;SDS011;5612;51.134;17.058;2024-01-15T01:21:13;12.27;;;8.60;;
2610;SDS011;5612;51.134;17.058;2024-01-15T01:23:42;12.03;;;10.77;;
2610;SDS011;5612;51.134;17.058;2024-01-15T01:26:12;14.60;;;10.80;;
2610;SDS011;5612;51.134;17.058;2024-01-15T01:28:44;12.47;;;10.20;;
2610;SDS011;5612;51.134;17.058;2024-01-15T01:31:14;12.30;;;9.63;;
2610;SDS011;5612;51.134;17.058;2024-01-15T01:33:43;11.10;;;9.87;;
2610;SDS011;5612;51.134;17.058;2024-01-15T01:36:12;11.90;;;10.30;;
2610;SDS011;5612;51.134;17.058;2024-01-15T01:38:42;11.37;;;10.27;;
2610;SDS011;5612;51.134;17.058;2024-01-15T01:41:10;10.10;;;9.00;;
2610;SDS011;5612;51.134;17.058;2024-01-15T01:43:39;12.90;;;11.53;;
2610;SDS011;5612;51.134;17.058;2024-01-15T01:46:10;12.60;;;10.13;;
2610;SDS011;5612;51.134;17.058;2024-01-15T01:48:39;14.37;;;10.13;;
2610;SDS011;5612;51.134;17.058;2024-01-15T01:51:09;13.63;;;9.20;;
2610;SDS011;5612;51.134;17.058;2024-01-15T01:53:39;10.33;;;9.33;;
2610;SDS011;5612;51.134;17.058;2024-01-15T01:56:08;12.43;;;10.40;;
2610;SDS011;5612;51.134;17.058;2024-01-15T01:58:38;14.27;;;10.87;;
2610;SDS011;5612;51.134;17.058;2024-01-15T02:01:07;12.33;;;9.90;;
2610;SDS011;5612;51.134;17.058;2024-01-15T02:03:38;12.23;;;9.90;;
2610;SDS011;5612;51.134;17.058;2024-01-15T02:06:07;19.03;;;11.53;;
2610;SDS011;5612;51.134;17.058;2024-01-15T02:08:37;18.93;;;12.20;;
2610;SDS011;5612;51.134;17.058;2024-01-15T02:11:06;13.73;;;11.90;;
2610;SDS011;5612;51.134;17.058;2024-01-15T02:13:35;18.33;;;14.87;;
2610;SDS011;5612;51.134;17.058;2024-01-15T02:16:04;17.63;;;13.30;;
2610;SDS011;5612;51.134;17.058;2024-01-15T02:18:42;23.13;;;14.50;;
2610;SDS011;5612;51.134;17.058;2024-01-15T02:21:12;20.67;;;13.70;;
2610;SDS011;5612;51.134;17.058;2024-01-15T02:23:42;18.93;;;13.10;;
2610;SDS011;5612;51.134;17.058;2024-01-15T02:26:11;17.73;;;14.30;;
2610;SDS011;5612;51.134;17.058;2024-01-15T02:28:41;19.97;;;13.73;;
2610;SDS011;5612;51.134;17.058;2024-01-15T02:31:11;24.07;;;16.43;;
2610;SDS011;5612;51.134;17.058;2024-01-15T02:33:40;23.87;;;14.90;;
2610;SDS011;5612;51.134;17.058;2024-01-15T02:36:10;17.70;;;13.50;;
2610;SDS011;5612;51.134;17.058;2024-01-15T02:38:39;14.20;;;11.87;;
2610;SDS011;5612;51.134;17.058;2024-01-15T02:41:10;14.53;;;12.27;;
2610;SDS011;5612;51.134;17.058;2024-01-15T02:43:41;16.93;;;12.40;;
2610;SDS011;5612;51.134;17.058;2024-01-15T02:46:09;17.50;;;12.50;;
2610;SDS011;5612;51.134;17.058;2024-01-15T02:48:38;16.50;;;11.83;;
2610;SDS011;5612;51.134;17.058;2024-01-15T02:51:07;14.10;;;11.80;;
2610;SDS011;5612;51.134;17.058;2024-01-15T02:53:36;13.60;;;11.13;;
2610;SDS011;5612;51.134;17.058;2024-01-15T02:56:06;16.10;;;13.47;;
2610;SDS011;5612;51.134;17.058;2024-01-15T02:58:37;21.73;;;16.63;;
2610;SDS011;5612;51.134;17.058;2024-01-15T03:01:05;18.03;;;14.33;;
2610;SDS011;5612;51.134;17.058;2024-01-15T03:03:35;25.43;;;15.20;;
2610;SDS011;5612;51.134;17.058;2024-01-15T03:06:04;18.90;;;13.20;;
2610;SDS011;5612;51.134;17.058;2024-01-15T03:08:33;20.83;;;12.53;;
2610;SDS011;5612;51.134;17.058;2024-01-15T03:11:02;18.10;;;12.10;;
2610;SDS011;5612;51.134;17.058;2024-01-15T03:13:31;19.17;;;11.23;;
2610;SDS011;5612;51.134;17.058;2024-01-15T03:16:05;16.10;;;11.20;;
2610;SDS011;5612;51.134;17.058;2024-01-15T03:18:34;15.80;;;10.60;;
2610;SDS011;5612;51.134;17.058;2024-01-15T03:21:04;14.73;;;10.20;;
2610;SDS011;5612;51.134;17.058;2024-01-15T03:23:34;10.40;;;9.40;;
2610;SDS011;5612;51.134;17.058;2024-01-15T03:26:03;12.10;;;9.50;;
2610;SDS011;5612;51.134;17.058;2024-01-15T03:28:31;10.37;;;9.30;;
2610;SDS011;5612;51.134;17.058;2024-01-15T03:31:02;13.50;;;8.90;;
2610;SDS011;5612;51.134;17.058;2024-01-15T03:33:31;13.70;;;8.70;;
2610;SDS011;5612;51.134;17.058;2024-01-15T03:36:00;9.60;;;8.23;;
2610;SDS011;5612;51.134;17.058;2024-01-15T03:38:28;13.40;;;7.37;;
2610;SDS011;5612;51.134;17.058;2024-01-15T03:40:57;9.23;;;7.27;;
2610;SDS011;5612;51.134;17.058;2024-01-15T03:43:27;8.73;;;7.90;;
2610;SDS011;5612;51.134;17.058;2024-01-15T03:45:55;7.77;;;6.93;;
2610;SDS011;5612;51.134;17.058;2024-01-15T03:48:26;9.13;;;8.03;;
2610;SDS011;5612;51.134;17.058;2024-01-15T03:50:55;14.83;;;8.60;;
2610;SDS011;5612;51.134;17.058;2024-01-15T03:53:24;9.50;;;8.03;;
2610;SDS011;5612;51.134;17.058;2024-01-15T03:55:53;9.30;;;7.97;;
2610;SDS011;5612;51.134;17.058;2024-01-15T03:58:22;14.37;;;8.73;;
2610;SDS011;5612;51.134;17.058;2024-01-15T04:00:51;12.20;;;8.30;;
2610;SDS011;5612;51.134;17.058;2024-01-15T04:03:20;9.00;;;7.43;;
2610;SDS011;5612;51.134;17.058;2024-01-15T04:05:50;11.07;;;8.50;;
2610;SDS011;5612;51.134;17.058;2024-01-15T04:08:19;10.53;;;8.03;;
2610;SDS011;5612;51.134;17.058;2024-01-15T04:10:48;11.00;;;8.00;;
2610;SDS011;5612;51.134;17.058;2024-01-15T04:13:17;10.80;;;8.63;;
2610;SDS011;5612;51.134;17.058;2024-01-15T04:15:46;9.43;;;7.30;;
2610;SDS011;5612;51.134;17.058;2024-01-15T04:18:15;9.37;;;7.40;;
2610;SDS011;5612;51.134;17.058;2024-01-15T04:20:44;9.23;;;7.80;;
2610;SDS011;5612;51.134;17.058;2024-01-15T04:23:14;13.50;;;8.80;;
2610;SDS011;5612;51.134;17.058;2024-01-15T04:25:43;12.23;;;7.57;;
2610;SDS011;5612;51.134;17.058;2024-01-15T04:28:12;12.00;;;7.80;;
2610;SDS011;5612;51.134;17.058;2024-01-15T04:30:41;9.50;;;7.10;;
2610;SDS011;5612;51.134;17.058;2024-01-15T04:33:10;11.00;;;7.10;;
2610;SDS011;5612;51.134;17.058;2024-01-15T04:35:40;14.80;;;7.53;;
2610;SDS011;5612;51.134;17.058;2024-01-15T04:38:09;11.53;;;7.20;;
2610;SDS011;5612;51.134;17.058;2024-01-15T04:40:39;8.70;;;6.40;;
2610;SDS011;5612;51.134;17.058;2024-01-15T04:43:08;6.40;;;5.80;;
2610;SDS011;5612;51.134;17.058;2024-01-15T04:45:37;5.50;;;5.00;;
2610;SDS011;5612;51.134;17.058;2024-01-15T04:48:06;6.00;;;5.40;;
2610;SDS011;5612;51.134;17.058;2024-01-15T04:50:35;7.20;;;6.50;;
2610;SDS011;5612;51.134;17.058;2024-01-15T04:53:04;6.87;;;6.17;;
2610;SDS011;5612;51.134;17.058;2024-01-15T04:55:35;7.67;;;6.50;;
2610;SDS011;5612;51.134;17.058;2024-01-15T04:58:05;9.90;;;8.50;;
2610;SDS011;5612;51.134;17.058;2024-01-15T05:00:34;10.33;;;7.13;;
2610;SDS011;5612;51.134;17.058;2024-01-15T05:03:04;10.30;;;8.47;;
2610;SDS011;5612;51.134;17.058;2024-01-15T05:05:33;8.83;;;8.00;;
2610;SDS011;5612;51.134;17.058;2024-01-15T05:08:02;12.13;;;8.30;;
2610;SDS011;5612;51.134;17.058;2024-01-15T05:10:31;11.47;;;7.23;;
2610;SDS011;5612;51.134;17.058;2024-01-15T05:13:00;9.20;;;6.87;;
2610;SDS011;5612;51.134;17.058;2024-01-15T05:15:30;10.00;;;6.67;;
2610;SDS011;5612;51.134;17.058;2024-01-15T05:17:59;9.90;;;6.77;;
2610;SDS011;5612;51.134;17.058;2024-01-15T05:20:28;11.20;;;6.60;;
2610;SDS011;5612;51.134;17.058;2024-01-15T05:22:57;11.30;;;7.60;;
2610;SDS011;5612;51.134;17.058;2024-01-15T05:25:25;8.63;;;6.43;;
2610;SDS011;5612;51.134;17.058;2024-01-15T05:27:54;8.20;;;6.97;;
2610;SDS011;5612;51.134;17.058;2024-01-15T05:30:23;7.67;;;6.83;;
2610;SDS011;5612;51.134;17.058;2024-01-15T05:32:54;8.20;;;6.70;;
2610;SDS011;5612;51.134;17.058;2024-01-15T05:35:24;7.77;;;6.20;;
2610;SDS011;5612;51.134;17.058;2024-01-15T05:37:53;9.83;;;6.83;;
2610;SDS011;5612;51.134;17.058;2024-01-15T05:40:22;7.60;;;6.23;;
2610;SDS011;5612;51.134;17.058;2024-01-15T05:42:50;8.17;;;7.37;;
2610;SDS011;5612;51.134;17.058;2024-01-15T05:45:20;11.00;;;8.17;;
2610;SDS011;5612;51.134;17.058;2024-01-15T05:47:49;10.63;;;8.40;;
2610;SDS011;5612;51.134;17.058;2024-01-15T05:50:20;8.40;;;7.50;;
2610;SDS011;5612;51.134;17.058;2024-01-15T05:52:49;10.40;;;8.80;;
2610;SDS011;5612;51.134;17.058;2024-01-15T05:55:18;10.07;;;7.40;;
2610;SDS011;5612;51.134;17.058;2024-01-15T05:57:47;9.03;;;8.10;;
2610;SDS011;5612;51.134;17.058;2024-01-15T06:00:16;13.17;;;10.03;;
2610;SDS011;5612;51.134;17.058;2024-01-15T06:02:46;13.70;;;10.97;;
2610;SDS011;5612;51.134;17.058;2024-01-15T06:05:14;12.47;;;9.20;;
2610;SDS011;5612;51.134;17.058;2024-01-15T06:07:45;14.30;;;9.33;;
2610;SDS011;5612;51.134;17.058;2024-01-15T06:10:14;7.67;;;6.53;;
2610;SDS011;5612;51.134;17.058;2024-01-15T06:12:43;10.57;;;6.40;;
2610;SDS011;5612;51.134;17.058;2024-01-15T06:15:12;7.87;;;7.10;;
2610;SDS011;5612;51.134;17.058;2024-01-15T06:17:41;9.83;;;6.80;;
2610;SDS011;5612;51.134;17.058;2024-01-15T06:20:10;9.17;;;7.33;;
2610;SDS011;5612;51.134;17.058;2024-01-15T06:22:40;9.90;;;8.77;;
2610;SDS011;5612;51.134;17.058;2024-01-15T06:25:10;9.30;;;7.60;;
2610;SDS011;5612;51.134;17.058;2024-01-15T06:27:39;9.43;;;8.40;;
2610;SDS011;5612;51.134;17.058;2024-01-15T06:30:08;11.00;;;8.37;;
2610;SDS011;5612;51.134;17.058;2024-01-15T06:32:39;11.07;;;8.00;;
2610;SDS011;5612;51.134;17.058;2024-01-15T06:35:08;11.83;;;7.80;;
2610;SDS011;5612;51.134;17.058;2024-01-15T06:37:38;6.70;;;6.10;;
2610;SDS011;5612;51.134;17.058;2024-01-15T06:40:07;10.60;;;7.80;;
2610;SDS011;5612;51.134;17.058;2024-01-15T06:42:38;9.13;;;7.20;;
2610;SDS011;5612;51.134;17.058;2024-01-15T06:45:09;11.27;;;7.33;;
2610;SDS011;5612;51.134;17.058;2024-01-15T06:47:38;7.53;;;6.40;;
2610;SDS011;5612;51.134;17.058;2024-01-15T06:50:07;8.20;;;6.83;;
2610;SDS011;5612;51.134;17.058;2024-01-15T06:52:36;10.43;;;7.20;;
2610;SDS011;5612;51.134;17.058;2024-01-15T06:55:05;7.30;;;6.43;;
2610;SDS011;5612;51.134;17.058;2024-01-15T06:57:37;7.37;;;6.67;;
2610;SDS011;5612;51.134;17.058;2024-01-15T07:00:07;9.27;;;6.70;;
2610;SDS011;5612;51.134;17.058;2024-01-15T07:02:37;10.30;;;6.90;;
2610;SDS011;5612;51.134;17.058;2024-01-15T07:05:06;8.43;;;7.07;;
2610;SDS011;5612;51.134;17.058;2024-01-15T07:07:36;7.73;;;6.60;;
2610;SDS011;5612;51.134;17.058;2024-01-15T07:10:06;10.47;;;6.90;;
2610;SDS011;5612;51.134;17.058;2024-01-15T07:12:37;8.10;;;6.80;;
2610;SDS011;5612;51.134;17.058;2024-01-15T07:15:06;6.83;;;6.00;;
2610;SDS011;5612;51.134;17.058;2024-01-15T07:17:35;8.70;;;7.30;;
2610;SDS011;5612;51.134;17.058;2024-01-15T07:20:06;7.93;;;6.27;;
2610;SDS011;5612;51.134;17.058;2024-01-15T07:22:36;11.50;;;6.90;;
2610;SDS011;5612;51.134;17.058;2024-01-15T07:25:05;8.60;;;7.30;;
2610;SDS011;5612;51.134;17.058;2024-01-15T07:27:34;8.20;;;6.33;;
2610;SDS011;5612;51.134;17.058;2024-01-15T07:30:05;8.90;;;6.70;;
2610;SDS011;5612;51.134;17.058;2024-01-15T07:32:36;8.03;;;7.07;;
2610;SDS011;5612;51.134;17.058;2024-01-15T07:35:05;6.93;;;6.30;;
2610;SDS011;5612;51.134;17.058;2024-01-15T07:37:34;8.10;;;6.20;;
2610;SDS011;5612;51.134;17.058;2024-01-15T07:40:03;8.63;;;6.77;;
2610;SDS011;5612;51.134;17.058;2024-01-15T07:42:36;7.97;;;6.33;;
2610;SDS011;5612;51.134;17.058;2024-01-15T07:45:06;7.07;;;5.57;;
2610;SDS011;5612;51.134;17.058;2024-01-15T07:47:35;7.63;;;6.77;;
2610;SDS011;5612;51.134;17.058;2024-01-15T07:50:04;11.23;;;6.23;;
2610;SDS011;5612;51.134;17.058;2024-01-15T07:52:33;8.73;;;6.27;;
2610;SDS011;5612;51.134;17.058;2024-01-15T07:55:02;9.80;;;6.87;;
2610;SDS011;5612;51.134;17.058;2024-01-15T07:57:32;7.80;;;6.87;;
2610;SDS011;5612;51.134;17.058;2024-01-15T08:00:04;7.90;;;6.43;;
2610;SDS011;5612;51.134;17.058;2024-01-15T08:02:36;9.17;;;7.10;;
2610;SDS011;5612;51.134;17.058;2024-01-15T08:05:05;10.13;;;5.23;;
2610;SDS011;5612;51.134;17.058;2024-01-15T08:07:34;7.53;;;5.97;;
2610;SDS011;5612;51.134;17.058;2024-01-15T08:10:03;10.70;;;6.77;;
2610;SDS011;5612;51.134;17.058;2024-01-15T08:12:32;7.27;;;6.57;;
2610;SDS011;5612;51.134;17.058;2024-01-15T08:15:01;8.07;;;5.63;;
2610;SDS011;5612;51.134;17.058;2024-01-15T08:17:32;7.13;;;5.13;;
2610;SDS011;5612;51.134;17.058;2024-01-15T08:20:01;7.37;;;5.40;;
2610;SDS011;5612;51.134;17.058;2024-01-15T08:22:32;6.17;;;5.17;;
2610;SDS011;5612;51.134;17.058;2024-01-15T08:25:01;7.53;;;5.23;;
2610;SDS011;5612;51.134;17.058;2024-01-15T08:27:30;5.40;;;4.90;;
2610;SDS011;5612;51.134;17.058;2024-01-15T08:29:59;5.30;;;4.37;;
2610;SDS011;5612;51.134;17.058;2024-01-15T08:32:31;8.20;;;6.40;;
2610;SDS011;5612;51.134;17.058;2024-01-15T08:35:03;7.87;;;5.70;;
2610;SDS011;5612;51.134;17.058;2024-01-15T08:37:32;6.80;;;5.70;;
2610;SDS011;5612;51.134;17.058;2024-01-15T08:40:01;8.33;;;6.10;;
2610;SDS011;5612;51.134;17.058;2024-01-15T08:42:31;5.90;;;4.80;;
2610;SDS011;5612;51.134;17.058;2024-01-15T08:45:00;5.40;;;4.27;;
2610;SDS011;5612;51.134;17.058;2024-01-15T08:47:31;4.97;;;4.33;;
2610;SDS011;5612;51.134;17.058;2024-01-15T08:50:00;4.70;;;3.50;;
2610;SDS011;5612;51.134;17.058;2024-01-15T08:52:30;5.13;;;4.40;;
2610;SDS011;5612;51.134;17.058;2024-01-15T08:54:58;4.63;;;4.23;;
2610;SDS011;5612;51.134;17.058;2024-01-15T08:57:27;8.80;;;4.60;;
2610;SDS011;5612;51.134;17.058;2024-01-15T08:59:56;5.20;;;3.63;;
2610;SDS011;5612;51.134;17.058;2024-01-15T09:02:26;9.87;;;3.93;;
2610;SDS011;5612;51.134;17.058;2024-01-15T09:04:57;6.13;;;5.00;;
2610;SDS011;5612;51.134;17.058;2024-01-15T09:07:26;6.73;;;4.97;;
2610;SDS011;5612;51.134;17.058;2024-01-15T09:09:55;5.83;;;3.90;;
2610;SDS011;5612;51.134;17.058;2024-01-15T09:12:26;6.40;;;4.40;;
2610;SDS011;5612;51.134;17.058;2024-01-15T09:14:57;5.17;;;3.70;;
2610;SDS011;5612;51.134;17.058;2024-01-15T09:17:26;6.00;;;5.40;;
2610;SDS011;5612;51.134;17.058;2024-01-15T09:19:57;4.90;;;3.80;;
2610;SDS011;5612;51.134;17.058;2024-01-15T09:22:26;6.67;;;4.70;;
2610;SDS011;5612;51.134;17.058;2024-01-15T09:24:55;4.60;;;3.90;;
2610;SDS011;5612;51.134;17.058;2024-01-15T09:27:24;6.43;;;4.33;;
2610;SDS011;5612;51.134;17.058;2024-01-15T09:29:53;5.50;;;3.83;;
2610;SDS011;5612;51.134;17.058;2024-01-15T09:32:22;7.70;;;4.50;;
2610;SDS011;5612;51.134;17.058;2024-01-15T09:34:51;8.00;;;5.00;;
2610;SDS011;5612;51.134;17.058;2024-01-15T09:37:23;4.40;;;3.60;;
2610;SDS011;5612;51.134;17.058;2024-01-15T09:40:12;7.63;;;4.30;;
2610;SDS011;5612;51.134;17.058;2024-01-15T09:42:42;5.20;;;3.80;;
2610;SDS011;5612;51.134;17.058;2024-01-15T09:45:12;5.57;;;3.40;;
2610;SDS011;5612;51.134;17.058;2024-01-15T09:47:42;6.93;;;4.67;;
2610;SDS011;5612;51.134;17.058;2024-01-15T09:50:12;5.20;;;4.70;;
2610;SDS011;5612;51.134;17.058;2024-01-15T09:52:44;5.13;;;3.77;;
2610;SDS011;5612;51.134;17.058;2024-01-15T09:55:14;5.10;;;3.90;;
2610;SDS011;5612;51.134;17.058;2024-01-15T09:57:44;6.40;;;5.80;;
2610;SDS011;5612;51.134;17.058;2024-01-15T10:00:14;5.23;;;4.63;;
2610;SDS011;5612;51.134;17.058;2024-01-15T10:02:46;6.17;;;4.40;;
2610;SDS011;5612;51.134;17.058;2024-01-15T10:05:16;5.60;;;4.40;;
2610;SDS011;5612;51.134;17.058;2024-01-15T10:07:46;4.53;;;4.10;;
2610;SDS011;5612;51.134;17.058;2024-01-15T10:10:18;5.40;;;4.90;;
2610;SDS011;5612;51.134;17.058;2024-01-15T10:12:49;7.17;;;4.77;;
2610;SDS011;5612;51.134;17.058;2024-01-15T10:15:18;4.53;;;3.27;;
2610;SDS011;5612;51.134;17.058;2024-01-15T10:17:50;5.97;;;3.97;;
2610;SDS011;5612;51.134;17.058;2024-01-15T10:20:19;5.37;;;4.77;;
2610;SDS011;5612;51.134;17.058;2024-01-15T10:22:51;5.73;;;4.30;;
2610;SDS011;5612;51.134;17.058;2024-01-15T10:25:20;5.73;;;4.47;;
2610;SDS011;5612;51.134;17.058;2024-01-15T10:28:01;4.50;;;4.10;;
2610;SDS011;5612;51.134;17.058;2024-01-15T10:30:31;4.73;;;3.80;;
2610;SDS011;5612;51.134;17.058;2024-01-15T10:33:01;4.80;;;4.27;;
2610;SDS011;5612;51.134;17.058;2024-01-15T10:35:32;4.83;;;4.07;;
2610;SDS011;5612;51.134;17.058;2024-01-15T10:38:04;5.80;;;4.70;;
2610;SDS011;5612;51.134;17.058;2024-01-15T10:40:34;6.57;;;4.40;;
2610;SDS011;5612;51.134;17.058;2024-01-15T10:43:03;8.20;;;4.50;;
2610;SDS011;5612;51.134;17.058;2024-01-15T10:45:32;9.40;;;3.60;;
2610;SDS011;5612;51.134;17.058;2024-01-15T10:48:01;7.13;;;4.17;;
2610;SDS011;5612;51.134;17.058;2024-01-15T10:50:31;6.23;;;3.70;;
2610;SDS011;5612;51.134;17.058;2024-01-15T10:53:00;5.40;;;4.57;;
2610;SDS011;5612;51.134;17.058;2024-01-15T10:55:31;4.73;;;4.13;;
2610;SDS011;5612;51.134;17.058;2024-01-15T10:58:01;4.37;;;3.47;;
2610;SDS011;5612;51.134;17.058;2024-01-15T11:00:31;4.27;;;3.50;;
2610;SDS011;5612;51.134;17.058;2024-01-15T11:03:01;6.33;;;3.70;;
2610;SDS011;5612;51.134;17.058;2024-01-15T11:05:33;5.13;;;4.03;;
2610;SDS011;5612;51.134;17.058;2024-01-15T11:08:05;5.83;;;4.40;;
2610;SDS011;5612;51.134;17.058;2024-01-15T11:10:39;5.37;;;4.07;;
2610;SDS011;5612;51.134;17.058;2024-01-15T11:13:14;6.93;;;4.47;;
2610;SDS011;5612;51.134;17.058;2024-01-15T11:15:58;6.73;;;4.00;;
2610;SDS011;5612;51.134;17.058;2024-01-15T11:18:29;4.83;;;3.70;;
2610;SDS011;5612;51.134;17.058;2024-01-15T11:21:21;4.40;;;3.13;;
2610;SDS011;5612;51.134;17.058;2024-01-15T11:23:55;6.40;;;4.33;;
2610;SDS011;5612;51.134;17.058;2024-01-15T11:26:29;5.53;;;3.90;;
2610;SDS011;5612;51.134;17.058;2024-01-15T11:29:04;5.67;;;4.07;;
2610;SDS011;5612;51.134;17.058;2024-01-15T11:37:56;7.57;;;3.50;;
2610;SDS011;5612;51.134;17.058;2024-01-15T11:43:12;4.53;;;3.57;;
2610;SDS011;5612;51.134;17.058;2024-01-15T11:45:45;4.43;;;3.47;;
2610;SDS011;5612;51.134;17.058;2024-01-15T11:48:18;5.27;;;3.27;;
2610;SDS011;5612;51.134;17.058;2024-01-15T11:50:49;3.30;;;3.00;;
2610;SDS011;5612;51.134;17.058;2024-01-15T11:53:27;5.53;;;3.97;;
2610;SDS011;5612;51.134;17.058;2024-01-15T11:56:02;6.00;;;3.80;;
2610;SDS011;5612;51.134;17.058;2024-01-15T11:58:36;4.70;;;4.20;;
2610;SDS011;5612;51.134;17.058;2024-01-15T12:01:05;5.20;;;3.63;;
2610;SDS011;5612;51.134;17.058;2024-01-15T12:03:34;6.90;;;5.10;;
2610;SDS011;5612;51.134;17.058;2024-01-15T12:06:05;8.70;;;4.30;;
2610;SDS011;5612;51.134;17.058;2024-01-15T12:08:34;8.07;;;5.00;;
2610;SDS011;5612;51.134;17.058;2024-01-15T12:11:05;7.53;;;4.60;;
2610;SDS011;5612;51.134;17.058;2024-01-15T12:13:40;4.77;;;3.97;;
2610;SDS011;5612;51.134;17.058;2024-01-15T12:16:09;6.07;;;3.83;;
2610;SDS011;5612;51.134;17.058;2024-01-15T12:18:38;6.17;;;4.10;;
2610;SDS011;5612;51.134;17.058;2024-01-15T12:21:09;6.30;;;4.70;;
2610;SDS011;5612;51.134;17.058;2024-01-15T12:23:39;5.77;;;3.67;;
2610;SDS011;5612;51.134;17.058;2024-01-15T12:26:08;8.73;;;4.63;;
2610;SDS011;5612;51.134;17.058;2024-01-15T12:28:36;5.23;;;3.60;;
2610;SDS011;5612;51.134;17.058;2024-01-15T12:31:07;6.20;;;4.17;;
2610;SDS011;5612;51.134;17.058;2024-01-15T12:33:36;6.73;;;3.53;;
2610;SDS011;5612;51.134;17.058;2024-01-15T12:36:07;3.50;;;3.20;;
2610;SDS011;5612;51.134;17.058;2024-01-15T12:38:36;5.37;;;3.87;;
2610;SDS011;5612;51.134;17.058;2024-01-15T12:41:06;7.13;;;3.67;;
2610;SDS011;5612;51.134;17.058;2024-01-15T12:43:35;4.80;;;3.70;;
2610;SDS011;5612;51.134;17.058;2024-01-15T12:46:04;7.50;;;3.63;;
2610;SDS011;5612;51.134;17.058;2024-01-15T12:48:35;9.03;;;4.70;;
2610;SDS011;5612;51.134;17.058;2024-01-15T12:51:06;5.57;;;4.40;;
2610;SDS011;5612;51.134;17.058;2024-01-15T12:53:36;6.13;;;4.70;;
2610;SDS011;5612;51.134;17.058;2024-01-15T12:56:05;5.77;;;3.53;;
2610;SDS011;5612;51.134;17.058;2024-01-15T12:58:34;7.00;;;4.00;;
2610;SDS011;5612;51.134;17.058;2024-01-15T13:01:03;7.83;;;4.90;;
2610;SDS011;5612;51.134;17.058;2024-01-15T13:03:32;4.50;;;4.13;;
2610;SDS011;5612;51.134;17.058;2024-01-15T13:06:03;5.00;;;3.80;;
2610;SDS011;5612;51.134;17.058;2024-01-15T13:08:34;5.23;;;4.20;;
2610;SDS011;5612;51.134;17.058;2024-01-15T13:11:03;7.07;;;4.37;;
2610;SDS011;5612;51.134;17.058;2024-01-15T13:13:33;4.47;;;4.10;;
2610;SDS011;5612;51.134;17.058;2024-01-15T13:16:02;5.90;;;4.37;;
2610;SDS011;5612;51.134;17.058;2024-01-15T13:18:31;5.07;;;4.57;;
2610;SDS011;5612;51.134;17.058;2024-01-15T13:21:01;4.83;;;3.10;;
2610;SDS011;5612;51.134;17.058;2024-01-15T13:23:31;7.23;;;4.37;;
2610;SDS011;5612;51.134;17.058;2024-01-15T13:26:00;5.13;;;4.43;;
2610;SDS011;5612;51.134;17.058;2024-01-15T13:28:29;8.80;;;4.53;;
2610;SDS011;5612;51.134;17.058;2024-01-15T13:30:58;9.50;;;5.20;;
2610;SDS011;5612;51.134;17.058;2024-01-15T13:33:28;6.73;;;4.77;;
2610;SDS011;5612;51.134;17.058;2024-01-15T13:35:57;6.17;;;3.80;;
2610;SDS011;5612;51.134;17.058;2024-01-15T13:38:27;5.83;;;3.60;;
2610;SDS011;5612;51.134;17.058;2024-01-15T13:41:02;6.37;;;4.40;;
2610;SDS011;5612;51.134;17.058;2024-01-15T13:43:31;4.70;;;3.57;;
2610;SDS011;5612;51.134;17.058;2024-01-15T13:46:00;4.77;;;3.13;;
2610;SDS011;5612;51.134;17.058;2024-01-15T13:48:31;6.70;;;4.63;;
2610;SDS011;5612;51.134;17.058;2024-01-15T13:51:00;10.30;;;4.00;;
2610;SDS011;5612;51.134;17.058;2024-01-15T13:53:31;6.40;;;4.20;;
2610;SDS011;5612;51.134;17.058;2024-01-15T13:56:00;4.50;;;3.90;;
2610;SDS011;5612;51.134;17.058;2024-01-15T13:58:29;6.13;;;4.33;;
2610;SDS011;5612;51.134;17.058;2024-01-15T14:00:59;6.10;;;4.07;;
2610;SDS011;5612;51.134;17.058;2024-01-15T14:03:30;4.20;;;3.80;;
2610;SDS011;5612;51.134;17.058;2024-01-15T14:06:03;6.40;;;4.40;;
2610;SDS011;5612;51.134;17.058;2024-01-15T14:08:37;6.53;;;5.00;;
2610;SDS011;5612;51.134;17.058;2024-01-15T14:11:06;4.90;;;3.80;;
2610;SDS011;5612;51.134;17.058;2024-01-15T14:13:36;4.80;;;4.30;;
2610;SDS011;5612;51.134;17.058;2024-01-15T14:16:05;4.00;;;3.60;;
2610;SDS011;5612;51.134;17.058;2024-01-15T14:18:36;6.40;;;4.50;;
2610;SDS011;5612;51.134;17.058;2024-01-15T14:21:08;5.63;;;3.57;;
2610;SDS011;5612;51.134;17.058;2024-01-15T14:23:39;7.60;;;4.00;;
2610;SDS011;5612;51.134;17.058;2024-01-15T14:26:10;4.00;;;3.50;;
2610;SDS011;5612;51.134;17.058;2024-01-15T14:28:41;7.50;;;3.33;;
2610;SDS011;5612;51.134;17.058;2024-01-15T14:31:10;5.90;;;4.60;;
2610;SDS011;5612;51.134;17.058;2024-01-15T14:33:39;3.53;;;3.23;;
2610;SDS011;5612;51.134;17.058;2024-01-15T14:36:09;5.60;;;3.53;;
2610;SDS011;5612;51.134;17.058;2024-01-15T14:38:39;7.60;;;3.50;;
2610;SDS011;5612;51.134;17.058;2024-01-15T14:41:08;9.30;;;3.97;;
2610;SDS011;5612;51.134;17.058;2024-01-15T14:43:37;5.50;;;3.60;;
2610;SDS011;5612;51.134;17.058;2024-01-15T14:46:06;4.60;;;4.20;;
2610;SDS011;5612;51.134;17.058;2024-01-15T14:48:36;8.93;;;3.93;;
2610;SDS011;5612;51.134;17.058;2024-01-15T14:51:05;4.83;;;4.20;;
2610;SDS011;5612;51.134;17.058;2024-01-15T14:53:34;4.83;;;3.80;;
2610;SDS011;5612;51.134;17.058;2024-01-15T14:56:05;4.27;;;3.87;;
2610;SDS011;5612;51.134;17.058;2024-01-15T14:58:34;7.77;;;5.37;;
2610;SDS011;5612;51.134;17.058;2024-01-15T15:01:04;5.10;;;3.93;;
2610;SDS011;5612;51.134;17.058;2024-01-15T15:03:35;6.03;;;4.33;;
2610;SDS011;5612;51.134;17.058;2024-01-15T15:06:04;5.37;;;3.77;;
2610;SDS011;5612;51.134;17.058;2024-01-15T15:08:35;4.40;;;3.37;;
2610;SDS011;5612;51.134;17.058;2024-01-15T15:11:06;15.33;;;4.40;;
2610;SDS011;5612;51.134;17.058;2024-01-15T15:13:35;5.63;;;3.90;;
2610;SDS011;5612;51.134;17.058;2024-01-15T15:16:11;5.20;;;3.67;;
2610;SDS011;5612;51.134;17.058;2024-01-15T15:18:41;5.03;;;3.67;;